Current Weather

West Michigan Rgnl

Holland, Michigan (KBIV)

Report from: Friday, February 23, 2024 3:53 PM EST
Current time: Friday, February 23, 2024 4:17 PM EST

Nearby weather – Weather history – Daily summaries
Weather forecast

Temperature5.6°C (42.1°F)
Wind chill2.8°C (37.1°F)
Dew point-2.8°C (27.0°F)
Winds 7 kts (3.6 m/s, 8.1 mph) North-Northeast (20°)
Visibility10 mi. (16.1 km)
Clouds Ceiling: Broken clouds 3,300 ft. (1,006 m)
Overcast 4,200 ft. (1,280 m)
Altimeter29.69 in.Hg (1005 mB)
Relative humidity55 %
Density altitude-799 ft. (-243 m)
Sea-level pressure100.6 kPa (1006 mB, 29.70 in.Hg)
Remarks Fully automated report
Automated weather observing station with precipitation discriminator
Pressure rising more quickly
Flight conditions Visual Meteorological Conditions
Raw dataKBIV 232053Z AUTO 02007KT 10SM BKN033 OVC042 06/M03 A2969 RMK AO2 WSHFT 1945 SLP057 T00561028 53005
An error has occurred. This application may no longer respond until reloaded. Reload 🗙